Terminal Aerodrome Forecast
Issued by NWS

Home | Current Version | Previous Version | Text Only | Print | Product List | Glossary On
Versions: 1 2 3 4 5 6 7 8 9 10 11 12 13 14 15 16
000
FTUS46 KSGX 301129
TAFSNA
TAF
KSNA 301129Z 3012/3112 VRB04KT P6SM VCFG SCT004
      TEMPO 3013/3016 3SM BR BKN004
     FM301700 20008KT P6SM SCT006
     FM301900 21012G20KT P6SM SCT010 SCT015
     FM310200 25007KT P6SM SCT020=

USA.gov is the U.S. government's official web portal to all federal, state and local government web resources and services.